createdAt,value
2023-03-04T00:03:08.728Z,1014.678
2023-03-04T00:23:07.518Z,1014.743
2023-03-04T00:43:07.250Z,1014.647
2023-03-04T01:03:08.000Z,1014.564
2023-03-04T01:23:07.883Z,1014.51
2023-03-04T01:43:07.701Z,1014.435
2023-03-04T02:03:08.498Z,1014.086
2023-03-04T02:23:07.487Z,1013.995
2023-03-04T02:43:07.237Z,1013.858
2023-03-04T03:03:08.491Z,1013.659
2023-03-04T03:23:07.328Z,1013.619
2023-03-04T03:43:08.226Z,1013.531
2023-03-04T04:03:08.494Z,1013.547
2023-03-04T04:23:07.233Z,1013.425
2023-03-04T04:43:08.116Z,1013.352
2023-03-04T05:03:09.296Z,1013.291
2023-03-04T05:23:08.090Z,1013.301
2023-03-04T05:43:07.541Z,1013.225
2023-03-04T06:03:08.335Z,1013.45
2023-03-04T06:23:08.231Z,1013.468
2023-03-04T06:43:07.968Z,1013.507
2023-03-04T07:03:08.765Z,1013.665
2023-03-04T07:23:07.633Z,1013.652
2023-03-04T07:43:07.510Z,1013.652
2023-03-04T08:03:08.252Z,1013.601
2023-03-04T08:23:08.371Z,1013.588
2023-03-04T08:43:07.376Z,1013.642
2023-03-04T09:03:08.170Z,1013.539
2023-03-04T09:23:08.502Z,1013.436
2023-03-04T09:43:07.475Z,1013.433
2023-03-04T10:03:08.488Z,1013.413
2023-03-04T10:23:07.358Z,1013.29
2023-03-04T10:43:07.172Z,1013.301
2023-03-04T11:03:09.005Z,1013.136
2023-03-04T11:23:08.025Z,1013.023
2023-03-04T11:43:07.885Z,1012.914
2023-03-04T12:03:08.713Z,1012.682
2023-03-04T12:23:07.527Z,1012.361
2023-03-04T12:43:07.506Z,1012.141
2023-03-04T13:03:08.948Z,1011.958
2023-03-04T13:23:07.880Z,1011.854
2023-03-04T13:43:07.788Z,1011.764
2023-03-04T14:03:08.693Z,1011.557
2023-03-04T14:23:07.630Z,1011.392
2023-03-04T14:43:07.639Z,1011.423
2023-03-04T15:03:08.702Z,1011.384
2023-03-04T15:23:07.772Z,1011.273
2023-03-04T15:43:07.970Z,1011.276
2023-03-04T16:03:09.012Z,1011.402
2023-03-04T16:23:08.092Z,1011.283
2023-03-04T16:43:08.004Z,1011.255
2023-03-04T17:03:09.176Z,1011.364
2023-03-04T17:23:08.049Z,1011.519
2023-03-04T17:43:08.111Z,1011.648
2023-03-04T18:03:09.074Z,1011.692
2023-03-04T18:23:08.130Z,1011.685
2023-03-04T18:43:07.227Z,1011.615
2023-03-04T19:03:09.301Z,1011.662
2023-03-04T19:23:08.051Z,1011.744
2023-03-04T19:43:08.120Z,1011.801
2023-03-04T20:03:09.174Z,1011.804
2023-03-04T20:23:08.055Z,1011.933
2023-03-04T20:43:07.986Z,1011.962
2023-03-04T21:03:09.172Z,1011.874
2023-03-04T21:23:08.076Z,1011.837
2023-03-04T21:43:08.120Z,1011.713
2023-03-04T22:03:09.188Z,1011.579
2023-03-04T22:23:08.133Z,1011.506
2023-03-04T22:43:08.271Z,1011.336
2023-03-04T23:03:08.743Z,1011.206
2023-03-04T23:23:07.422Z,1011.074
2023-03-04T23:43:08.152Z,1011.022
